Time;durP1;ratioP1;P1;durP2;ratioP2;P2;SDS_P1;SDS_P2;PMS_P1;PMS_P2;Temp;Humidity;BMP_temperature;BMP_pressure;BME280_temperature;BME280_humidity;BME280_pressure;Samples;Min_cycle;Max_cycle;Signal;HPM_P1;HPM_P2
2023/08/17 00:03:57;;;;;;;6.25;2.77;;;;;;;22.45;79.79;101122.03;5303975;55;1138607;-65
2023/08/17 00:09:03;;;;;;;7.08;3.12;;;;;;;22.44;80.61;101129.78;5304116;55;1138445;-65
2023/08/17 00:14:10;;;;;;;5.65;2.37;;;;;;;22.45;80.73;101130.11;5324534;55;1139042;-66
2023/08/17 00:19:15;;;;;;;4.65;2.52;;;;;;;22.46;80.96;101127.20;5304067;55;1138521;-65
2023/08/17 00:24:21;;;;;;;4.90;2.25;;;;;;;22.39;80.76;101128.13;5303120;55;1138681;-65
2023/08/17 00:29:26;;;;;;;3.50;2.80;;;;;;;22.33;81.10;101114.02;5324421;55;1139108;-65
2023/08/17 00:34:34;;;;;;;4.33;2.20;;;;;;;22.26;81.01;101111.73;5216204;55;1138427;-65
2023/08/17 00:39:40;;;;;;;2.42;1.65;;;;;;;22.19;81.18;101110.77;5215461;56;1138462;-65
2023/08/17 00:44:46;;;;;;;5.87;2.30;;;;;;;22.20;81.45;101113.80;5298041;55;1138602;-65
2023/08/17 00:49:51;;;;;;;5.67;2.27;;;;;;;22.20;81.34;101138.04;5324282;55;1138593;-64
2023/08/17 00:54:58;;;;;;;3.70;2.35;;;;;;;22.16;81.70;101136.20;5303989;55;1138422;-65
2023/08/17 01:00:04;;;;;;;3.92;2.42;;;;;;;22.14;81.93;101125.30;5304050;55;1138570;-65
2023/08/17 01:05:10;;;;;;;2.25;1.82;;;;;;;22.04;81.40;101138.99;5324348;55;1138833;-65
2023/08/17 01:10:17;;;;;;;2.60;2.40;;;;;;;21.91;82.31;101130.12;5303919;55;1138436;-65
2023/08/17 01:15:45;;;;;;;6.25;2.83;;;;;;;21.74;82.02;101128.03;5230361;55;1138838;-64
2023/08/17 01:20:53;;;;;;;6.63;3.17;;;;;;;21.54;82.52;101123.28;5214601;55;1138768;-65
2023/08/17 01:25:59;;;;;;;6.00;2.58;;;;;;;21.43;83.47;101131.21;5148598;56;1138552;-65
2023/08/17 01:31:20;;;;;;;3.12;2.08;;;;;;;21.44;84.18;101138.78;5184510;56;1138424;-65
2023/08/17 01:36:33;;;;;;;10.30;2.73;;;;;;;21.47;84.27;101137.93;5185003;56;1138924;-65
2023/08/17 01:41:42;;;;;;;5.30;2.45;;;;;;;21.49;84.37;101125.65;5230607;55;1140634;-65
2023/08/17 01:46:48;;;;;;;6.92;2.37;;;;;;;21.49;84.12;101116.23;5303619;55;1138407;-65
2023/08/17 01:51:53;;;;;;;3.10;2.27;;;;;;;21.53;83.82;101136.41;5273268;55;1138588;-65
2023/08/17 01:56:59;;;;;;;8.60;2.08;;;;;;;21.62;83.45;101158.22;5292171;55;1138600;-65
2023/08/17 02:02:05;;;;;;;3.02;2.10;;;;;;;21.65;82.42;101162.75;5271970;55;1138703;-65
2023/08/17 02:07:10;;;;;;;5.03;1.90;;;;;;;21.63;82.30;101184.97;5215066;56;1138623;-65
2023/08/17 02:12:17;;;;;;;2.22;1.87;;;;;;;21.70;82.39;101188.63;5320913;55;1138582;-65
2023/08/17 02:17:23;;;;;;;1.87;1.75;;;;;;;21.73;81.35;101204.44;5298736;55;1138899;-65
2023/08/17 02:22:28;;;;;;;6.97;1.87;;;;;;;21.55;80.84;101246.89;5191529;56;1138767;-66
2023/08/17 02:27:34;;;;;;;19.10;2.40;;;;;;;21.19;83.08;101272.05;5204279;57;1138585;-65
2023/08/17 02:32:39;;;;;;;7.45;2.72;;;;;;;20.88;86.85;101288.49;5141325;55;1140999;-65
2023/08/17 02:37:45;;;;;;;5.78;2.80;;;;;;;20.61;92.03;101316.52;5170023;55;1138960;-65
2023/08/17 02:42:51;;;;;;;7.58;2.33;;;;;;;20.24;98.99;101292.70;5226237;55;1138719;-66
2023/08/17 02:47:56;;;;;;;4.03;2.50;;;;;;;19.89;100.00;101297.24;5257736;55;1138671;-67
2023/08/17 02:53:02;;;;;;;9.58;2.60;;;;;;;19.65;100.00;101318.09;5189520;55;1140741;-66
2023/08/17 02:58:08;;;;;;;8.78;3.33;;;;;;;19.49;100.00;101306.38;5182983;55;1140708;-65
2023/08/17 03:03:14;;;;;;;2.33;2.05;;;;;;;19.34;100.00;101303.43;5264869;55;1140694;-65
2023/08/17 03:08:20;;;;;;;6.05;2.12;;;;;;;19.26;100.00;101287.26;5179592;55;1140695;-65
2023/08/17 03:13:25;;;;;;;5.08;2.83;;;;;;;19.27;100.00;101278.22;5147149;55;1140811;-65
2023/08/17 03:18:31;;;;;;;11.35;3.80;;;;;;;19.23;100.00;101266.98;5187175;55;1140675;-65
2023/08/17 03:23:37;;;;;;;4.75;2.50;;;;;;;19.18;100.00;101239.78;5100667;55;1142701;-65
2023/08/17 03:28:43;;;;;;;7.00;2.20;;;;;;;19.24;100.00;101195.42;5114795;54;1140682;-66
2023/08/17 03:33:50;;;;;;;8.23;2.40;;;;;;;19.28;100.00;101172.13;5200551;55;1140893;-65
2023/08/17 03:38:56;;;;;;;4.60;2.35;;;;;;;19.28;100.00;101195.42;5221441;55;1140717;-65
2023/08/17 03:44:05;;;;;;;10.93;3.10;;;;;;;19.46;100.00;101261.08;5201235;55;1140590;-65
2023/08/17 03:49:11;;;;;;;9.73;2.77;;;;;;;19.71;100.00;101228.03;5198987;55;1232504;-67
2023/08/17 03:54:19;;;;;;;12.34;3.04;;;;;;;19.76;100.00;101204.73;5217661;55;1140615;-66
2023/08/17 03:59:25;;;;;;;9.95;4.10;;;;;;;19.40;100.00;101209.42;5191786;54;1142769;-65
2023/08/17 04:04:32;;;;;;;9.10;2.83;;;;;;;18.98;100.00;101117.15;5185335;54;1140969;-66
2023/08/17 04:09:37;;;;;;;8.80;2.60;;;;;;;18.98;100.00;101117.15;5210140;54;1140963;-65
2023/08/17 04:14:43;;;;;;;5.00;2.20;;;;;;;18.96;100.00;101148.63;5186035;54;1140860;-65
2023/08/17 04:19:49;;;;;;;5.37;2.60;;;;;;;18.98;100.00;101163.22;5199828;55;1140836;-65
2023/08/17 04:24:54;;;;;;;5.15;2.17;;;;;;;19.05;100.00;101182.22;5212796;54;1140923;-65
2023/08/17 04:30:02;;;;;;;6.47;2.05;;;;;;;19.05;100.00;101222.44;5250438;55;1140899;-66
2023/08/17 04:35:10;;;;;;;5.30;2.35;;;;;;;18.95;100.00;101279.64;5229721;54;1140911;-67
2023/08/17 04:40:16;;;;;;;5.20;2.52;;;;;;;18.66;100.00;101303.16;5248296;55;1141001;-66
2023/08/17 04:45:23;;;;;;;12.73;2.80;;;;;;;18.48;100.00;101311.17;5114216;56;1140471;-65
2023/08/17 04:50:28;;;;;;;5.83;1.92;;;;;;;18.39;100.00;101354.91;5138628;56;1142708;-65
2023/08/17 04:55:34;;;;;;;2.65;1.92;;;;;;;18.32;100.00;101372.59;5213471;54;1141006;-65
2023/08/17 05:00:39;;;;;;;5.08;2.00;;;;;;;18.35;100.00;101361.55;5114921;55;1141089;-66
2023/08/17 05:05:45;;;;;;;3.65;2.37;;;;;;;18.43;100.00;101339.39;5228796;54;1140876;-65
2023/08/17 05:10:52;;;;;;;6.22;2.17;;;;;;;18.52;100.00;101266.15;5256721;54;1140985;-65
2023/08/17 05:15:58;;;;;;;3.65;2.30;;;;;;;18.67;100.00;101284.75;5082504;55;1140686;-65
2023/08/17 05:21:04;;;;;;;7.60;2.83;;;;;;;18.64;100.00;101255.58;5249751;54;1140926;-65
2023/08/17 05:26:10;;;;;;;7.85;2.72;;;;;;;18.54;100.00;101218.62;5262680;55;1140829;-65
2023/08/17 05:31:16;;;;;;;7.15;2.80;;;;;;;18.48;100.00;101197.83;5198014;55;1145388;-64
2023/08/17 05:36:24;;;;;;;4.95;2.12;;;;;;;18.56;100.00;101209.44;5228185;55;1141115;-65
2023/08/17 05:41:29;;;;;;;4.15;2.17;;;;;;;18.58;100.00;101213.31;5340448;54;1140473;-65
2023/08/17 05:46:36;;;;;;;3.90;2.42;;;;;;;18.46;100.00;101195.80;5371212;55;1141073;-66
2023/08/17 05:51:41;;;;;;;8.73;2.37;;;;;;;18.52;100.00;101183.11;5130332;56;1140629;-65
2023/08/17 05:56:47;;;;;;;4.66;2.16;;;;;;;18.51;100.00;101174.22;5246230;54;1155132;-63
2023/08/17 06:01:53;;;;;;;3.58;2.55;;;;;;;18.61;100.00;101175.53;5341492;54;1141063;-65
2023/08/17 06:06:58;;;;;;;3.55;2.15;;;;;;;18.67;100.00;101153.95;5297061;54;1141432;-65
2023/08/17 06:18:27;;;;;;;7.70;2.92;;;;;;;18.93;100.00;101138.25;5151548;56;1140873;-66
2023/08/17 06:23:33;;;;;;;2.75;2.12;;;;;;;19.03;100.00;101141.31;5109352;56;1140536;-65
2023/08/17 06:28:39;;;;;;;3.98;1.90;;;;;;;19.03;100.00;101131.93;5348252;54;1141001;-64
2023/08/17 06:33:44;;;;;;;5.17;2.47;;;;;;;19.03;100.00;101135.95;5168538;55;1140880;-65
2023/08/17 06:38:50;;;;;;;4.60;1.90;;;;;;;18.90;100.00;101165.37;5332954;55;1140893;-65
2023/08/17 06:43:55;;;;;;;2.98;1.55;;;;;;;18.90;100.00;101187.31;5230241;56;1140713;-65
2023/08/17 06:49:01;;;;;;;2.85;1.90;;;;;;;18.93;100.00;101254.02;5303496;55;1140479;-65
2023/08/17 06:54:09;;;;;;;7.58;2.85;;;;;;;18.88;100.00;101318.80;5214739;56;1140847;-65
2023/08/17 06:59:15;;;;;;;2.42;1.50;;;;;;;18.88;100.00;101318.80;5225123;55;1140822;-65
2023/08/17 07:04:20;;;;;;;12.50;3.27;;;;;;;18.82;100.00;101279.70;5235479;54;1140792;-65
2023/08/17 07:09:27;;;;;;;10.72;2.58;;;;;;;18.66;100.00;101143.73;5170164;54;1142943;-64
2023/08/17 07:14:33;;;;;;;4.53;1.62;;;;;;;18.45;100.00;101133.84;5180786;55;1142812;-65
2023/08/17 07:19:38;;;;;;;5.17;2.30;;;;;;;18.22;100.00;101162.41;5241835;54;1140688;-65
2023/08/17 07:24:44;;;;;;;4.25;2.33;;;;;;;18.02;100.00;101159.56;5101103;55;1140794;-64
2023/08/17 07:29:50;;;;;;;4.20;1.87;;;;;;;17.89;100.00;101153.20;5169582;55;1150108;-65
2023/08/17 07:34:55;;;;;;;5.65;1.92;;;;;;;17.75;100.00;101152.38;5210141;55;1141029;-64
2023/08/17 07:40:07;;;;;;;4.33;2.40;;;;;;;17.69;100.00;101138.28;5265107;54;1140845;-65
2023/08/17 07:45:09;;;;;;;6.10;2.65;;;;;;;17.67;100.00;101135.41;5206156;54;1140866;-65
2023/08/17 07:50:15;;;;;;;5.35;3.05;;;;;;;17.73;100.00;101146.83;5269393;54;1140677;-65
2023/08/17 07:55:20;;;;;;;8.95;1.85;;;;;;;18.06;100.00;101156.05;5175386;55;1140680;-64
2023/08/17 08:00:26;;;;;;;6.80;1.90;;;;;;;18.06;100.00;101156.05;5290350;54;1140507;-65
2023/08/17 08:05:32;;;;;;;4.17;2.00;;;;;;;18.18;100.00;101154.34;5291949;55;1141061;-65
2023/08/17 08:10:37;;;;;;;6.20;2.00;;;;;;;18.31;100.00;101138.41;5251959;55;1140821;-65
2023/08/17 08:15:43;;;;;;;4.55;2.58;;;;;;;18.41;100.00;101135.98;5305006;55;1141072;-65
2023/08/17 08:20:49;;;;;;;3.98;2.20;;;;;;;18.49;100.00;101121.30;5317984;54;1142325;-65
2023/08/17 08:25:55;;;;;;;4.10;2.58;;;;;;;18.51;100.00;101139.90;5198587;55;1140798;-65
2023/08/17 08:31:05;;;;;;;3.50;2.20;;;;;;;18.51;100.00;101154.63;5362842;55;1140575;-65
2023/08/17 08:36:10;;;;;;;3.40;1.47;;;;;;;18.59;100.00;101152.06;5294918;54;1140517;-64
2023/08/17 08:41:16;;;;;;;2.58;1.82;;;;;;;18.63;100.00;101144.07;5128264;56;1141013;-65
2023/08/17 08:46:24;;;;;;;5.92;2.80;;;;;;;18.69;100.00;101137.23;5284718;55;1140868;-65
2023/08/17 08:51:33;;;;;;;2.10;2.00;;;;;;;18.76;100.00;101149.86;5231469;55;1140861;-64
2023/08/17 08:56:40;;;;;;;5.72;2.55;;;;;;;18.89;100.00;101163.68;5241770;55;1141110;-65
2023/08/17 09:01:46;;;;;;;5.17;2.20;;;;;;;19.04;100.00;101167.12;5063401;58;1140766;-65
2023/08/17 09:06:53;;;;;;;9.00;2.30;;;;;;;19.20;100.00;101164.05;5062827;57;1141177;-65
2023/08/17 09:11:58;;;;;;;3.20;2.47;;;;;;;19.38;100.00;101159.11;5201530;54;1141177;-65
2023/08/17 09:17:05;;;;;;;3.90;2.47;;;;;;;19.45;100.00;101159.63;5160171;56;1140531;-65
2023/08/17 09:22:10;;;;;;;4.15;2.92;;;;;;;19.53;100.00;101166.42;5120776;56;1140870;-65
2023/08/17 09:27:16;;;;;;;4.22;2.50;;;;;;;19.65;100.00;101170.49;5057047;57;1140897;-66
2023/08/17 09:32:21;;;;;;;4.04;2.96;;;;;;;19.67;100.00;101185.09;5027557;57;1140637;-65
2023/08/17 09:37:29;;;;;;;5.37;2.20;;;;;;;19.74;100.00;101182.59;4867733;59;1140845;-65
2023/08/17 09:42:37;;;;;;;4.85;2.62;;;;;;;19.88;100.00;101181.96;4890334;59;1140935;-65
2023/08/17 09:47:44;;;;;;;3.44;2.62;;;;;;;20.08;100.00;101173.13;4982977;57;1242412;-65
2023/08/17 09:52:53;;;;;;;3.92;2.42;;;;;;;20.28;100.00;101181.23;5149157;56;1140416;-65
2023/08/17 09:58:00;;;;;;;3.92;2.87;;;;;;;20.55;100.00;101188.16;5021738;57;1141225;-65
2023/08/17 10:03:06;;;;;;;7.12;2.80;;;;;;;20.84;100.00;101195.72;5090226;57;1140649;-66
2023/08/17 10:08:13;;;;;;;5.47;3.00;;;;;;;21.17;100.00;101200.05;5151305;55;1140611;-65
2023/08/17 10:13:38;;;;;;;8.85;3.50;;;;;;;21.50;100.00;101204.03;5013764;56;1140704;-66
2023/08/17 10:18:56;;;;;;;7.25;4.30;;;;;;;21.80;100.00;101201.05;5087759;56;1140690;-67
2023/08/17 10:24:03;;;;;;;5.65;3.35;;;;;;;21.99;100.00;101199.28;5003746;57;1140932;-67
2023/08/17 10:29:09;;;;;;;6.53;3.42;;;;;;;22.13;100.00;101187.78;5075055;56;1141756;-66
2023/08/17 10:34:15;;;;;;;11.03;4.70;;;;;;;22.31;100.00;101191.52;5059626;56;1140996;-66
2023/08/17 10:39:30;;;;;;;7.22;3.92;;;;;;;22.46;100.00;101200.50;5296541;55;1142891;-66
2023/08/17 10:44:50;;;;;;;9.43;4.15;;;;;;;22.53;100.00;101176.37;5171144;55;1140692;-65
2023/08/17 10:50:05;;;;;;;9.35;4.17;;;;;;;22.79;100.00;101178.19;5322479;54;1140958;-65
2023/08/17 10:55:11;;;;;;;7.08;4.05;;;;;;;23.05;100.00;101171.05;5206435;56;1140894;-65
2023/08/17 11:00:32;;;;;;;3.90;3.55;;;;;;;23.21;100.00;101161.94;5253663;55;1141112;-65
2023/08/17 11:05:58;;;;;;;7.30;4.25;;;;;;;23.35;100.00;101155.19;5214471;56;1140764;-65
2023/08/17 11:11:10;;;;;;;4.65;4.20;;;;;;;23.59;100.00;101156.77;5362129;55;1140537;-65
2023/08/17 11:16:19;;;;;;;8.18;4.60;;;;;;;23.80;100.00;101151.95;5295793;55;1140441;-66
2023/08/17 11:21:24;;;;;;;6.35;4.45;;;;;;;24.00;100.00;101154.34;5324149;55;1140680;-65
2023/08/17 11:26:30;;;;;;;6.50;3.62;;;;;;;24.06;100.00;101154.94;5300558;55;1140690;-65
2023/08/17 11:31:36;;;;;;;8.88;4.20;;;;;;;24.25;100.00;101148.62;5303286;55;1140756;-65
2023/08/17 11:36:42;;;;;;;7.80;3.80;;;;;;;24.47;100.00;101142.16;5310148;55;1141028;-66
2023/08/17 11:41:47;;;;;;;6.10;3.67;;;;;;;24.64;100.00;101137.31;5287377;55;1140749;-66
2023/08/17 11:46:53;;;;;;;5.50;3.47;;;;;;;24.71;100.00;101131.45;5256335;55;1141013;-65
2023/08/17 11:51:58;;;;;;;6.37;4.55;;;;;;;24.87;100.00;101124.39;5382171;55;1140966;-66
2023/08/17 11:57:04;;;;;;;8.80;4.65;;;;;;;25.08;100.00;101127.55;5175861;56;1140705;-67
2023/08/17 12:02:10;;;;;;;7.47;3.80;;;;;;;25.23;100.00;101129.10;5334101;55;1140727;-66
2023/08/17 12:07:19;;;;;;;5.55;3.87;;;;;;;25.34;100.00;101123.66;5235290;56;1140679;-66
2023/08/17 12:12:24;;;;;;;7.05;4.30;;;;;;;25.42;100.00;101128.06;5330830;54;1140506;-66
2023/08/17 12:17:30;;;;;;;7.10;5.05;;;;;;;25.53;100.00;101128.31;5322850;54;1140774;-66
2023/08/17 12:22:36;;;;;;;11.88;4.22;;;;;;;25.75;100.00;101129.58;5202758;56;1140659;-66
2023/08/17 12:27:42;;;;;;;7.83;5.35;;;;;;;25.96;100.00;101129.45;5322197;55;1142572;-66
2023/08/17 12:32:47;;;;;;;10.58;5.33;;;;;;;26.12;100.00;101127.71;5196025;56;1140688;-66
2023/08/17 12:37:56;;;;;;;4.73;4.33;;;;;;;26.21;100.00;101122.39;5151454;56;1144861;-66
2023/08/17 12:43:02;;;;;;;8.48;4.92;;;;;;;26.37;100.00;101116.28;5280585;54;1140769;-66
2023/08/17 12:48:07;;;;;;;7.70;5.08;;;;;;;26.46;100.00;101102.81;5280567;54;1140452;-66
2023/08/17 12:53:13;;;;;;;6.50;4.90;;;;;;;26.57;100.00;101101.69;5270799;54;1140591;-66
2023/08/17 12:58:19;;;;;;;4.85;4.30;;;;;;;26.72;100.00;101100.63;5266662;54;1140771;-66
2023/08/17 13:03:24;;;;;;;5.85;4.65;;;;;;;26.78;100.00;101092.46;5141989;56;1140746;-67
2023/08/17 13:08:30;;;;;;;5.15;4.28;;;;;;;26.84;100.00;101097.05;5269452;55;1140727;-66
2023/08/17 13:13:36;;;;;;;13.30;4.45;;;;;;;27.02;100.00;101090.16;5239071;55;1140777;-66
2023/08/17 13:18:41;;;;;;;4.87;4.33;;;;;;;27.11;100.00;101087.52;5169847;55;1142864;-65
2023/08/17 13:23:47;;;;;;;7.87;4.85;;;;;;;27.22;100.00;101082.77;5193417;54;1141165;-65
2023/08/17 13:28:52;;;;;;;11.95;5.47;;;;;;;27.34;100.00;101082.95;5240139;54;1141005;-66
2023/08/17 13:33:58;;;;;;;4.80;4.05;;;;;;;27.47;100.00;101085.09;5185769;55;1142984;-65
2023/08/17 13:39:04;;;;;;;10.43;4.78;;;;;;;27.48;100.00;101081.33;5201453;54;1140981;-65
2023/08/17 13:44:10;;;;;;;7.55;4.62;;;;;;;27.64;100.00;101081.38;5258822;54;1142871;-66
2023/08/17 13:49:15;;;;;;;9.93;5.22;;;;;;;27.70;100.00;101079.66;5063607;55;1140974;-66
2023/08/17 13:54:21;;;;;;;6.97;6.10;;;;;;;27.75;100.00;101079.85;4981796;56;1140949;-66
2023/08/17 13:59:26;;;;;;;9.78;5.33;;;;;;;27.78;100.00;101072.62;5174318;55;1140828;-65
2023/08/17 14:04:32;;;;;;;15.25;6.05;;;;;;;27.85;100.00;101071.52;5170629;55;1140734;-66
2023/08/17 14:09:38;;;;;;;9.58;6.87;;;;;;;27.86;100.00;101067.75;5185995;55;1143074;-66
2023/08/17 14:14:43;;;;;;;6.17;5.45;;;;;;;27.76;100.00;101070.64;5144934;55;1140883;-66
2023/08/17 14:19:49;;;;;;;9.76;6.60;;;;;;;27.72;100.00;101063.97;5117045;55;1140742;-66
2023/08/17 14:24:54;;;;;;;14.23;6.83;;;;;;;27.79;100.00;101060.17;5141560;56;1140837;-67
2023/08/17 14:30:05;;;;;;;7.35;5.60;;;;;;;27.88;100.00;101052.05;5118152;55;1142768;-65
2023/08/17 14:35:07;;;;;;;14.73;5.87;;;;;;;27.89;100.00;101047.45;5132738;55;1140638;-66
2023/08/17 14:40:13;;;;;;;10.35;5.70;;;;;;;28.04;100.00;101040.33;5178514;55;1142848;-65
2023/08/17 14:45:19;;;;;;;10.60;5.37;;;;;;;28.11;100.00;101041.13;5175814;54;1143028;-67
2023/08/17 14:50:24;;;;;;;10.30;5.65;;;;;;;28.18;100.00;101034.56;5190441;55;1143063;-66
2023/08/17 14:55:31;;;;;;;21.73;5.70;;;;;;;28.29;100.00;101037.95;5211237;55;1142995;-66
2023/08/17 15:00:37;;;;;;;10.35;5.75;;;;;;;28.32;100.00;101036.67;5159370;55;1143039;-66
2023/08/17 15:05:42;;;;;;;14.75;6.87;;;;;;;28.25;100.00;101042.72;5171242;55;1142974;-66
2023/08/17 15:10:48;;;;;;;8.08;5.03;;;;;;;28.23;100.00;101028.50;5177787;55;1142820;-66
2023/08/17 15:15:54;;;;;;;8.45;5.03;;;;;;;28.15;100.00;101036.89;5154995;55;1140627;-66
2023/08/17 15:20:59;;;;;;;7.78;5.60;;;;;;;28.20;100.00;101032.49;5132734;56;1140685;-66
2023/08/17 15:26:05;;;;;;;7.60;5.37;;;;;;;28.22;100.00;101033.11;5134565;55;1140496;-66
2023/08/17 15:31:17;;;;;;;7.35;5.10;;;;;;;28.21;100.00;101028.72;5044606;56;1141006;-66
2023/08/17 15:36:21;;;;;;;6.30;4.90;;;;;;;28.27;100.00;101032.41;5046994;55;1140935;-66
2023/08/17 15:41:25;;;;;;;9.08;5.70;;;;;;;28.37;100.00;101027.33;5068618;56;1140955;-66
2023/08/17 15:46:31;;;;;;;17.10;5.83;;;;;;;28.43;100.00;101022.33;5134844;55;1140669;-65
2023/08/17 15:51:37;;;;;;;10.10;5.17;;;;;;;28.54;100.00;101025.70;5195999;55;1142919;-67
2023/08/17 15:56:43;;;;;;;7.78;5.20;;;;;;;28.68;100.00;101029.11;5039135;56;1142882;-67
2023/08/17 16:01:49;;;;;;;9.84;4.90;;;;;;;28.64;99.09;101031.45;5053152;56;1140906;-68
2023/08/17 16:06:55;;;;;;;8.93;5.03;;;;;;;28.38;98.79;101027.63;5058620;55;1138615;-67
2023/08/17 16:12:01;;;;;;;9.90;4.90;;;;;;;28.20;99.17;101018.89;5050443;56;1138709;-67
2023/08/17 16:17:06;;;;;;;13.08;4.92;;;;;;;28.10;99.61;101021.26;5182145;55;1138716;-66
2023/08/17 16:22:12;;;;;;;7.72;4.75;;;;;;;27.99;100.00;101025.50;5135070;54;1140877;-66
2023/08/17 16:27:18;;;;;;;4.85;4.05;;;;;;;27.81;100.00;101022.70;5019555;56;1140925;-66
2023/08/17 16:32:23;;;;;;;10.63;4.85;;;;;;;27.70;100.00;101024.78;5108393;56;1141198;-66
2023/08/17 16:37:29;;;;;;;6.83;4.97;;;;;;;27.58;100.00;101019.73;5069702;56;1143056;-66
2023/08/17 16:42:34;;;;;;;13.48;5.37;;;;;;;27.55;100.00;101020.97;5127054;56;1141234;-66
2023/08/17 16:47:40;;;;;;;7.55;4.87;;;;;;;27.55;100.00;101014.17;5067979;56;1143013;-66
2023/08/17 16:52:46;;;;;;;9.43;5.12;;;;;;;27.50;100.00;101026.22;5131651;55;1140794;-67
2023/08/17 16:57:51;;;;;;;12.53;7.53;;;;;;;27.42;100.00;101019.69;5101446;56;1140889;-67
2023/08/17 17:02:57;;;;;;;9.88;6.15;;;;;;;27.30;100.00;101018.19;5177835;55;1142814;-66
2023/08/17 17:08:03;;;;;;;13.70;5.33;;;;;;;27.14;100.00;101021.40;5196988;55;1140912;-66
2023/08/17 17:13:09;;;;;;;11.35;6.40;;;;;;;27.02;100.00;101016.33;5181075;54;1142852;-66
2023/08/17 17:18:15;;;;;;;13.55;8.38;;;;;;;27.10;100.00;101026.11;5250220;54;1143117;-67
2023/08/17 17:23:20;;;;;;;10.98;6.78;;;;;;;27.11;100.00;101027.25;5134176;55;1144213;-66
2023/08/17 17:28:26;;;;;;;12.33;6.83;;;;;;;27.11;100.00;101044.06;5300813;54;1142555;-67
2023/08/17 17:33:32;;;;;;;10.10;6.12;;;;;;;27.00;100.00;101040.15;5279752;54;1143310;-66
2023/08/17 17:38:38;;;;;;;8.65;6.28;;;;;;;26.84;100.00;101038.70;5250054;54;1142651;-66
2023/08/17 17:43:45;;;;;;;10.78;5.58;;;;;;;26.76;100.00;101042.15;5267483;54;1141164;-69
2023/08/17 17:48:50;;;;;;;9.85;5.28;;;;;;;26.69;100.00;101048.13;5092515;56;1142988;-66
2023/08/17 17:53:57;;;;;;;17.45;11.18;;;;;;;26.54;100.00;101051.91;5250675;54;1140770;-66
2023/08/17 17:59:03;;;;;;;20.90;9.67;;;;;;;26.47;100.00;101061.08;5183067;54;1144951;-66
2023/08/17 18:04:08;;;;;;;15.93;8.60;;;;;;;26.38;100.00;101066.42;5218171;54;1143102;-66
2023/08/17 18:09:14;;;;;;;16.87;7.55;;;;;;;26.21;100.00;101069.52;5211350;54;1142898;-66
2023/08/17 18:14:19;;;;;;;18.13;9.17;;;;;;;26.04;100.00;101067.41;5247190;54;1143023;-66
2023/08/17 18:19:25;;;;;;;29.15;14.03;;;;;;;26.00;100.00;101060.20;5174452;55;1142811;-67
2023/08/17 18:24:31;;;;;;;15.28;12.35;;;;;;;26.07;100.00;101066.48;5222750;54;1144855;-67
2023/08/17 18:29:36;;;;;;;13.58;7.97;;;;;;;25.96;100.00;101068.98;5257133;55;1145012;-67
2023/08/17 18:34:42;;;;;;;22.55;10.85;;;;;;;25.87;100.00;101074.58;5278300;54;1142708;-67
2023/08/17 18:39:47;;;;;;;18.10;10.05;;;;;;;25.82;100.00;101068.93;5256743;54;1145061;-66
2023/08/17 18:44:54;;;;;;;81.28;70.83;;;;;;;25.79;100.00;101062.59;5256825;54;1144901;-66
2023/08/17 18:50:00;;;;;;;59.35;49.45;;;;;;;25.54;100.00;101050.59;5253126;55;1145147;-68
2023/08/17 18:55:10;;;;;;;12.93;11.18;;;;;;;25.49;100.00;101051.75;5125092;56;1144994;-67
2023/08/17 19:00:14;;;;;;;16.12;9.48;;;;;;;25.59;100.00;101056.25;5214636;54;1144958;-66
2023/08/17 19:05:20;;;;;;;11.78;7.12;;;;;;;25.63;100.00;101049.94;5287703;54;1142938;-67
2023/08/17 19:10:26;;;;;;;9.45;7.55;;;;;;;25.59;100.00;101055.73;5233768;54;1142994;-67
2023/08/17 19:15:32;;;;;;;17.55;11.50;;;;;;;25.53;100.00;101043.50;5259533;54;1141027;-66
2023/08/17 19:20:38;;;;;;;35.28;30.32;;;;;;;25.54;100.00;101037.05;5151145;55;1145140;-65
2023/08/17 19:25:43;;;;;;;21.37;18.42;;;;;;;25.34;100.00;101034.81;5123253;55;1144568;-66
2023/08/17 19:30:49;;;;;;;13.10;10.78;;;;;;;25.11;100.00;101033.26;5148644;55;1145221;-66
2023/08/17 19:35:55;;;;;;;18.87;8.65;;;;;;;24.94;100.00;101025.16;5048233;56;1145178;-67
2023/08/17 19:41:00;;;;;;;13.00;8.30;;;;;;;24.98;100.00;101024.24;5052847;56;1143077;-67
2023/08/17 19:46:06;;;;;;;8.85;7.95;;;;;;;25.08;100.00;101030.11;5053833;55;1142963;-67
2023/08/17 19:51:12;;;;;;;12.60;8.55;;;;;;;25.09;100.00;101012.31;5149125;54;1141021;-67
2023/08/17 19:56:18;;;;;;;14.35;7.75;;;;;;;25.10;100.00;101015.34;5177843;55;1142956;-67
2023/08/17 20:01:25;;;;;;;9.38;6.20;;;;;;;25.00;100.00;101025.72;5138600;54;1142942;-66
2023/08/17 20:06:34;;;;;;;8.07;5.77;;;;;;;24.75;100.00;101013.16;5133992;55;1140860;-66
2023/08/17 20:11:39;;;;;;;7.97;4.95;;;;;;;24.60;100.00;101019.71;5095841;56;1140662;-66
2023/08/17 20:16:45;;;;;;;6.33;4.17;;;;;;;24.51;100.00;101014.99;5022509;56;1140844;-66
2023/08/17 20:21:51;;;;;;;5.33;3.77;;;;;;;24.43;100.00;101025.45;5041409;56;1140871;-66
2023/08/17 20:26:56;;;;;;;6.67;3.85;;;;;;;24.34;100.00;101019.02;5099564;55;1140665;-66
2023/08/17 20:32:04;;;;;;;12.10;3.72;;;;;;;24.32;100.00;101020.57;5084078;55;1140686;-65
2023/08/17 20:37:15;;;;;;;6.07;3.30;;;;;;;24.25;100.00;101022.41;5170229;55;1142820;-66
2023/08/17 20:42:21;;;;;;;6.45;3.58;;;;;;;24.20;100.00;101026.17;5103835;55;1140941;-65
2023/08/17 20:47:27;;;;;;;8.88;3.17;;;;;;;24.12;100.00;101031.73;5082199;55;1141124;-66
2023/08/17 20:52:32;;;;;;;8.28;4.17;;;;;;;24.01;100.00;101033.58;5199471;54;1140920;-66
2023/08/17 20:57:38;;;;;;;9.93;3.65;;;;;;;23.88;100.00;101035.65;5221192;55;1140820;-67
2023/08/17 21:02:44;;;;;;;3.20;2.90;;;;;;;23.81;100.00;101039.66;5200635;55;1140804;-66
2023/08/17 21:07:49;;;;;;;8.85;3.85;;;;;;;23.79;100.00;101044.92;5188040;55;1140697;-66
2023/08/17 21:12:55;;;;;;;6.67;3.27;;;;;;;23.70;100.00;101043.35;5172863;54;1141047;-66
2023/08/17 21:18:01;;;;;;;10.72;3.42;;;;;;;23.61;100.00;101056.16;5221135;55;1140906;-66
2023/08/17 21:23:06;;;;;;;4.20;2.83;;;;;;;23.54;100.00;101053.04;5200219;55;1142984;-65
2023/08/17 21:28:12;;;;;;;8.63;3.47;;;;;;;23.50;100.00;101046.66;5200243;55;1140716;-66
2023/08/17 21:33:17;;;;;;;4.37;2.92;;;;;;;23.45;100.00;101044.20;5220972;55;1140997;-66
2023/08/17 21:38:23;;;;;;;5.10;2.70;;;;;;;23.40;100.00;101038.52;5200813;55;1140938;-65
2023/08/17 21:43:32;;;;;;;4.40;3.12;;;;;;;23.30;100.00;101040.19;5113293;56;1140697;-66
2023/08/17 21:48:37;;;;;;;4.65;2.47;;;;;;;23.21;100.00;101037.80;5192734;55;1140836;-66
2023/08/17 21:53:43;;;;;;;3.72;2.77;;;;;;;23.09;100.00;101047.70;5194821;55;1140693;-65
2023/08/17 21:58:48;;;;;;;7.87;2.95;;;;;;;23.08;100.00;101048.72;5185456;55;1140857;-66
2023/08/17 22:03:54;;;;;;;11.25;3.65;;;;;;;23.10;100.00;101050.72;5130733;55;1140732;-66
2023/08/17 22:09:00;;;;;;;2.98;2.65;;;;;;;23.08;100.00;101043.32;5144166;55;1142791;-65
2023/08/17 22:14:05;;;;;;;3.87;2.30;;;;;;;23.05;100.00;101029.39;5200492;55;1140625;-66
2023/08/17 22:19:11;;;;;;;5.03;2.50;;;;;;;23.06;100.00;101042.70;5200441;55;1140819;-66
2023/08/17 22:24:17;;;;;;;5.95;2.37;;;;;;;22.96;100.00;101056.97;5220801;55;1140840;-66
2023/08/17 22:29:22;;;;;;;8.08;4.28;;;;;;;22.90;100.00;101064.98;5200578;55;1140991;-66
2023/08/17 22:34:28;;;;;;;9.63;8.28;;;;;;;22.80;100.00;101057.98;5200311;55;1140776;-66
2023/08/17 22:39:33;;;;;;;8.40;4.10;;;;;;;22.76;100.00;101040.50;5133996;56;1140785;-65
2023/08/17 22:44:39;;;;;;;4.12;2.25;;;;;;;22.77;100.00;101048.08;5198890;55;1141132;-66
2023/08/17 22:49:45;;;;;;;5.20;2.95;;;;;;;22.72;100.00;101083.68;5067643;56;1140962;-66
2023/08/17 22:54:50;;;;;;;6.50;3.10;;;;;;;22.67;100.00;101090.13;5019898;56;1140870;-66
2023/08/17 22:59:56;;;;;;;3.47;2.10;;;;;;;22.65;100.00;101081.89;5103186;55;1140583;-67